sensor_id;sensor_type;location;lat;lon;timestamp;pressure;altitude;pressure_sealevel;temperature;humidity
12781;BME280;6454;43.304;24.344;2022-07-18T00:00:50;100893.25;;;21.21;32.63
12781;BME280;6454;43.304;24.344;2022-07-18T00:03:17;100880.78;;;21.15;32.56
12781;BME280;6454;43.304;24.344;2022-07-18T00:05:44;100882.63;;;21.11;33.14
12781;BME280;6454;43.304;24.344;2022-07-18T00:08:11;100889.94;;;21.07;32.78
12781;BME280;6454;43.304;24.344;2022-07-18T00:10:38;100887.53;;;21.05;33.15
12781;BME280;6454;43.304;24.344;2022-07-18T00:13:06;100889.66;;;21.00;32.92
12781;BME280;6454;43.304;24.344;2022-07-18T00:15:33;100883.88;;;20.93;32.96
12781;BME280;6454;43.304;24.344;2022-07-18T00:18:00;100892.38;;;20.88;33.06
12781;BME280;6454;43.304;24.344;2022-07-18T00:20:26;100887.00;;;20.91;33.42
12781;BME280;6454;43.304;24.344;2022-07-18T00:22:54;100894.31;;;20.87;33.34
12781;BME280;6454;43.304;24.344;2022-07-18T00:25:21;100894.66;;;20.86;33.41
12781;BME280;6454;43.304;24.344;2022-07-18T00:27:48;100897.41;;;20.86;33.83
12781;BME280;6454;43.304;24.344;2022-07-18T00:30:16;100903.13;;;20.81;34.23
12781;BME280;6454;43.304;24.344;2022-07-18T00:32:43;100896.38;;;20.70;34.28
12781;BME280;6454;43.304;24.344;2022-07-18T00:35:10;100896.38;;;20.70;34.31
12781;BME280;6454;43.304;24.344;2022-07-18T00:37:37;100904.19;;;20.68;34.32
12781;BME280;6454;43.304;24.344;2022-07-18T00:40:05;100901.44;;;20.68;34.08
12781;BME280;6454;43.304;24.344;2022-07-18T00:42:32;100897.78;;;20.55;34.49
12781;BME280;6454;43.304;24.344;2022-07-18T00:44:59;100901.22;;;20.52;34.55
12781;BME280;6454;43.304;24.344;2022-07-18T00:47:27;100899.19;;;20.40;34.69
12781;BME280;6454;43.304;24.344;2022-07-18T00:49:54;100896.81;;;20.30;34.71
12781;BME280;6454;43.304;24.344;2022-07-18T00:52:21;100902.53;;;20.25;34.88
12781;BME280;6454;43.304;24.344;2022-07-18T00:54:48;100908.66;;;20.22;34.52
12781;BME280;6454;43.304;24.344;2022-07-18T00:57:14;100905.28;;;20.25;34.86
12781;BME280;6454;43.304;24.344;2022-07-18T00:59:42;100912.88;;;20.20;35.04
12781;BME280;6454;43.304;24.344;2022-07-18T01:02:42;100914.84;;;20.19;35.35
12781;BME280;6454;43.304;24.344;2022-07-18T01:05:09;100909.66;;;20.18;35.24
12781;BME280;6454;43.304;24.344;2022-07-18T01:07:36;100906.56;;;20.28;35.23
12781;BME280;6454;43.304;24.344;2022-07-18T01:10:05;100913.00;;;20.32;35.43
12781;BME280;6454;43.304;24.344;2022-07-18T01:12:32;100908.31;;;20.32;35.54
12781;BME280;6454;43.304;24.344;2022-07-18T01:14:58;100917.88;;;20.35;35.64
12781;BME280;6454;43.304;24.344;2022-07-18T01:17:25;100912.88;;;20.28;36.17
12781;BME280;6454;43.304;24.344;2022-07-18T01:19:54;100920.53;;;20.23;36.08
12781;BME280;6454;43.304;24.344;2022-07-18T01:22:22;100918.59;;;20.23;36.30
12781;BME280;6454;43.304;24.344;2022-07-18T01:24:49;100925.84;;;20.19;36.84
12781;BME280;6454;43.304;24.344;2022-07-18T01:27:17;100918.75;;;20.18;37.16
12781;BME280;6454;43.304;24.344;2022-07-18T01:29:45;100923.38;;;19.97;37.67
12781;BME280;6454;43.304;24.344;2022-07-18T01:32:14;100914.19;;;19.84;37.89
12781;BME280;6454;43.304;24.344;2022-07-18T01:34:41;100940.06;;;19.92;37.99
12781;BME280;6454;43.304;24.344;2022-07-18T01:37:09;100933.44;;;19.84;39.56
12781;BME280;6454;43.304;24.344;2022-07-18T01:39:37;100926.34;;;19.75;39.23
12781;BME280;6454;43.304;24.344;2022-07-18T01:42:05;100933.34;;;19.72;39.17
12781;BME280;6454;43.304;24.344;2022-07-18T01:44:32;100928.97;;;19.71;38.97
12781;BME280;6454;43.304;24.344;2022-07-18T01:47:00;100937.06;;;19.68;39.04
12781;BME280;6454;43.304;24.344;2022-07-18T01:49:28;100947.59;;;19.66;39.52
12781;BME280;6454;43.304;24.344;2022-07-18T01:51:55;100939.69;;;19.56;39.55
12781;BME280;6454;43.304;24.344;2022-07-18T01:54:23;100937.28;;;19.54;39.61
12781;BME280;6454;43.304;24.344;2022-07-18T01:56:52;100934.38;;;19.51;39.42
12781;BME280;6454;43.304;24.344;2022-07-18T01:59:19;100929.03;;;19.46;39.97
12781;BME280;6454;43.304;24.344;2022-07-18T02:01:46;100935.19;;;19.43;39.72
12781;BME280;6454;43.304;24.344;2022-07-18T02:04:13;100937.63;;;19.44;40.15
12781;BME280;6454;43.304;24.344;2022-07-18T02:06:40;100942.31;;;19.44;40.73
12781;BME280;6454;43.304;24.344;2022-07-18T02:09:08;100945.38;;;19.42;41.47
12781;BME280;6454;43.304;24.344;2022-07-18T02:11:35;100946.03;;;19.30;41.60
12781;BME280;6454;43.304;24.344;2022-07-18T02:14:04;100943.44;;;19.25;41.90
12781;BME280;6454;43.304;24.344;2022-07-18T02:16:31;100955.06;;;19.22;42.00
12781;BME280;6454;43.304;24.344;2022-07-18T02:18:58;100955.91;;;19.23;41.83
12781;BME280;6454;43.304;24.344;2022-07-18T02:21:25;100968.69;;;19.19;42.32
12781;BME280;6454;43.304;24.344;2022-07-18T02:23:52;100971.75;;;19.17;43.03
12781;BME280;6454;43.304;24.344;2022-07-18T02:26:19;100964.16;;;19.06;43.86
12781;BME280;6454;43.304;24.344;2022-07-18T02:28:46;100969.63;;;18.97;44.24
12781;BME280;6454;43.304;24.344;2022-07-18T02:31:14;100969.78;;;18.92;44.43
12781;BME280;6454;43.304;24.344;2022-07-18T02:33:41;100971.56;;;18.80;44.89
12781;BME280;6454;43.304;24.344;2022-07-18T02:36:08;100973.00;;;18.77;45.67
12781;BME280;6454;43.304;24.344;2022-07-18T02:38:35;100975.41;;;18.70;46.11
12781;BME280;6454;43.304;24.344;2022-07-18T02:41:02;100973.34;;;18.67;46.80
12781;BME280;6454;43.304;24.344;2022-07-18T02:43:29;100972.00;;;18.56;47.36
12781;BME280;6454;43.304;24.344;2022-07-18T02:45:56;100980.41;;;18.51;47.49
12781;BME280;6454;43.304;24.344;2022-07-18T02:48:24;100983.41;;;18.41;47.39
12781;BME280;6454;43.304;24.344;2022-07-18T02:50:51;100989.03;;;18.36;47.80
12781;BME280;6454;43.304;24.344;2022-07-18T02:53:18;100996.44;;;18.27;48.46
12781;BME280;6454;43.304;24.344;2022-07-18T02:55:48;100992.06;;;18.17;49.26
12781;BME280;6454;43.304;24.344;2022-07-18T02:58:15;100995.59;;;18.18;49.04
12781;BME280;6454;43.304;24.344;2022-07-18T03:00:42;100990.28;;;18.21;49.06
12781;BME280;6454;43.304;24.344;2022-07-18T03:03:10;100996.53;;;18.13;49.59
12781;BME280;6454;43.304;24.344;2022-07-18T03:05:38;100998.09;;;17.97;50.00
12781;BME280;6454;43.304;24.344;2022-07-18T03:08:05;101009.06;;;17.97;50.50
12781;BME280;6454;43.304;24.344;2022-07-18T03:10:32;101013.25;;;17.94;50.45
12781;BME280;6454;43.304;24.344;2022-07-18T03:12:58;101007.88;;;17.89;50.21
12781;BME280;6454;43.304;24.344;2022-07-18T03:15:25;101005.56;;;17.83;51.00
12781;BME280;6454;43.304;24.344;2022-07-18T03:17:52;101013.81;;;17.83;51.08
12781;BME280;6454;43.304;24.344;2022-07-18T03:20:19;101023.59;;;17.75;51.07
12781;BME280;6454;43.304;24.344;2022-07-18T03:22:47;101018.38;;;17.65;51.58
12781;BME280;6454;43.304;24.344;2022-07-18T03:25:14;101023.84;;;17.65;51.79
12781;BME280;6454;43.304;24.344;2022-07-18T03:27:41;101026.31;;;17.67;51.89
12781;BME280;6454;43.304;24.344;2022-07-18T03:30:09;101021.63;;;17.67;51.82
12781;BME280;6454;43.304;24.344;2022-07-18T03:32:36;101021.56;;;17.59;53.05
12781;BME280;6454;43.304;24.344;2022-07-18T03:35:03;101031.22;;;17.56;52.64
12781;BME280;6454;43.304;24.344;2022-07-18T03:37:30;101027.88;;;17.59;52.73
12781;BME280;6454;43.304;24.344;2022-07-18T03:39:59;101017.38;;;17.61;52.48
12781;BME280;6454;43.304;24.344;2022-07-18T03:42:26;101018.50;;;17.60;52.40
12781;BME280;6454;43.304;24.344;2022-07-18T03:44:53;101021.44;;;17.64;52.81
12781;BME280;6454;43.304;24.344;2022-07-18T03:47:19;101029.22;;;17.70;53.06
12781;BME280;6454;43.304;24.344;2022-07-18T03:49:46;101030.25;;;17.74;52.77
12781;BME280;6454;43.304;24.344;2022-07-18T03:52:13;101030.84;;;17.71;52.76
12781;BME280;6454;43.304;24.344;2022-07-18T03:54:40;101027.16;;;17.76;53.15
12781;BME280;6454;43.304;24.344;2022-07-18T03:57:08;101027.25;;;17.84;52.51
12781;BME280;6454;43.304;24.344;2022-07-18T03:59:35;101024.84;;;17.91;53.13
12781;BME280;6454;43.304;24.344;2022-07-18T04:02:02;101036.19;;;17.98;53.02
12781;BME280;6454;43.304;24.344;2022-07-18T04:04:29;101030.94;;;18.11;53.06
12781;BME280;6454;43.304;24.344;2022-07-18T04:06:55;101038.75;;;18.17;53.10
12781;BME280;6454;43.304;24.344;2022-07-18T04:09:24;101042.31;;;18.26;52.33
12781;BME280;6454;43.304;24.344;2022-07-18T04:11:51;101039.31;;;18.36;52.64
12781;BME280;6454;43.304;24.344;2022-07-18T04:14:19;101036.56;;;18.45;51.57
12781;BME280;6454;43.304;24.344;2022-07-18T04:16:48;101033.56;;;18.55;51.90
12781;BME280;6454;43.304;24.344;2022-07-18T04:19:15;101034.59;;;18.67;52.03
12781;BME280;6454;43.304;24.344;2022-07-18T04:21:42;101037.03;;;18.78;51.56
12781;BME280;6454;43.304;24.344;2022-07-18T04:24:09;101035.94;;;18.87;51.62
12781;BME280;6454;43.304;24.344;2022-07-18T04:26:36;101037.75;;;19.00;51.53
12781;BME280;6454;43.304;24.344;2022-07-18T04:29:03;101044.41;;;19.16;50.83
12781;BME280;6454;43.304;24.344;2022-07-18T04:31:31;101042.94;;;19.27;50.06
12781;BME280;6454;43.304;24.344;2022-07-18T04:33:58;101045.41;;;19.38;50.05
12781;BME280;6454;43.304;24.344;2022-07-18T04:36:25;101048.31;;;19.50;50.14
12781;BME280;6454;43.304;24.344;2022-07-18T04:38:53;101047.84;;;19.65;50.04
12781;BME280;6454;43.304;24.344;2022-07-18T04:41:20;101045.25;;;19.68;49.65
12781;BME280;6454;43.304;24.344;2022-07-18T04:43:50;101055.59;;;19.80;49.76
12781;BME280;6454;43.304;24.344;2022-07-18T04:46:17;101040.38;;;19.91;50.09
12781;BME280;6454;43.304;24.344;2022-07-18T04:48:45;101047.28;;;20.06;49.46
12781;BME280;6454;43.304;24.344;2022-07-18T04:51:12;101046.75;;;20.21;50.23
12781;BME280;6454;43.304;24.344;2022-07-18T04:53:39;101052.75;;;20.31;49.60
12781;BME280;6454;43.304;24.344;2022-07-18T04:56:06;101042.50;;;20.40;48.87
12781;BME280;6454;43.304;24.344;2022-07-18T04:58:33;101039.72;;;20.49;48.08
12781;BME280;6454;43.304;24.344;2022-07-18T05:01:00;101041.94;;;20.64;47.97
12781;BME280;6454;43.304;24.344;2022-07-18T05:03:27;101043.97;;;20.76;47.25
12781;BME280;6454;43.304;24.344;2022-07-18T05:05:55;101041.44;;;20.91;47.14
12781;BME280;6454;43.304;24.344;2022-07-18T05:08:23;101049.81;;;21.03;46.16
12781;BME280;6454;43.304;24.344;2022-07-18T05:10:50;101038.25;;;21.10;45.57
12781;BME280;6454;43.304;24.344;2022-07-18T05:13:17;101050.53;;;21.21;45.47
12781;BME280;6454;43.304;24.344;2022-07-18T05:15:44;101044.72;;;21.35;45.65
12781;BME280;6454;43.304;24.344;2022-07-18T05:18:11;101049.72;;;21.41;45.30
12781;BME280;6454;43.304;24.344;2022-07-18T05:20:37;101055.97;;;21.50;45.44
12781;BME280;6454;43.304;24.344;2022-07-18T05:23:06;101050.34;;;21.59;45.10
12781;BME280;6454;43.304;24.344;2022-07-18T05:25:32;101055.25;;;21.74;44.49
12781;BME280;6454;43.304;24.344;2022-07-18T05:27:59;101056.16;;;21.87;44.87
12781;BME280;6454;43.304;24.344;2022-07-18T05:30:26;101050.91;;;21.94;43.78
12781;BME280;6454;43.304;24.344;2022-07-18T05:32:53;101060.72;;;22.03;43.71
12781;BME280;6454;43.304;24.344;2022-07-18T05:35:20;101060.59;;;22.12;43.60
12781;BME280;6454;43.304;24.344;2022-07-18T05:37:47;101056.59;;;22.21;43.90
12781;BME280;6454;43.304;24.344;2022-07-18T05:40:16;101067.41;;;22.14;41.34
12781;BME280;6454;43.304;24.344;2022-07-18T05:42:43;101067.28;;;22.11;41.30
12781;BME280;6454;43.304;24.344;2022-07-18T05:45:11;101068.69;;;22.29;41.27
12781;BME280;6454;43.304;24.344;2022-07-18T05:47:38;101067.22;;;22.31;40.77
12781;BME280;6454;43.304;24.344;2022-07-18T05:50:06;101061.81;;;22.35;40.08
12781;BME280;6454;43.304;24.344;2022-07-18T05:52:33;101066.53;;;22.46;41.00
12781;BME280;6454;43.304;24.344;2022-07-18T05:55:00;101068.75;;;22.41;39.98
12781;BME280;6454;43.304;24.344;2022-07-18T05:57:28;101069.19;;;22.31;40.38
12781;BME280;6454;43.304;24.344;2022-07-18T05:59:55;101072.19;;;22.38;40.03
12781;BME280;6454;43.304;24.344;2022-07-18T06:02:22;101073.00;;;22.38;40.44
12781;BME280;6454;43.304;24.344;2022-07-18T06:04:49;101073.34;;;22.49;40.07
12781;BME280;6454;43.304;24.344;2022-07-18T06:07:16;101071.28;;;22.58;40.62
12781;BME280;6454;43.304;24.344;2022-07-18T06:09:42;101075.59;;;22.68;41.15
12781;BME280;6454;43.304;24.344;2022-07-18T06:12:09;101073.41;;;22.73;39.24
12781;BME280;6454;43.304;24.344;2022-07-18T06:14:38;101080.66;;;22.78;39.86
12781;BME280;6454;43.304;24.344;2022-07-18T06:17:05;101075.59;;;22.92;40.10
12781;BME280;6454;43.304;24.344;2022-07-18T06:19:32;101074.22;;;22.98;40.23
12781;BME280;6454;43.304;24.344;2022-07-18T06:21:59;101070.16;;;23.07;39.11
12781;BME280;6454;43.304;24.344;2022-07-18T06:24:26;101068.06;;;23.17;39.57
12781;BME280;6454;43.304;24.344;2022-07-18T06:26:53;101069.00;;;23.21;39.71
12781;BME280;6454;43.304;24.344;2022-07-18T06:29:19;101062.88;;;23.15;39.71
12781;BME280;6454;43.304;24.344;2022-07-18T06:31:48;101070.38;;;23.15;39.17
12781;BME280;6454;43.304;24.344;2022-07-18T06:34:14;101068.41;;;23.15;38.97
12781;BME280;6454;43.304;24.344;2022-07-18T06:36:41;101070.81;;;23.17;38.96
12781;BME280;6454;43.304;24.344;2022-07-18T06:39:08;101073.81;;;23.24;39.17
12781;BME280;6454;43.304;24.344;2022-07-18T06:41:36;101069.78;;;23.21;38.95
12781;BME280;6454;43.304;24.344;2022-07-18T06:44:04;101066.63;;;23.35;39.17
12781;BME280;6454;43.304;24.344;2022-07-18T06:46:31;101062.53;;;23.41;38.05
12781;BME280;6454;43.304;24.344;2022-07-18T06:48:59;101068.47;;;23.55;38.31
12781;BME280;6454;43.304;24.344;2022-07-18T06:51:26;101064.69;;;23.75;38.83
12781;BME280;6454;43.304;24.344;2022-07-18T06:53:53;101065.09;;;23.89;39.00
12781;BME280;6454;43.304;24.344;2022-07-18T06:56:20;101073.72;;;24.00;37.80
12781;BME280;6454;43.304;24.344;2022-07-18T06:58:46;101074.28;;;23.93;38.31
12781;BME280;6454;43.304;24.344;2022-07-18T07:01:15;101068.31;;;23.91;38.61
12781;BME280;6454;43.304;24.344;2022-07-18T07:03:42;101070.81;;;23.96;37.80
12781;BME280;6454;43.304;24.344;2022-07-18T07:06:11;101067.31;;;24.11;37.55
12781;BME280;6454;43.304;24.344;2022-07-18T07:08:37;101065.19;;;24.20;38.28
12781;BME280;6454;43.304;24.344;2022-07-18T07:11:04;101068.78;;;24.37;37.79
12781;BME280;6454;43.304;24.344;2022-07-18T07:13:31;101068.06;;;24.40;37.38
12781;BME280;6454;43.304;24.344;2022-07-18T07:15:58;101075.75;;;24.30;37.36
12781;BME280;6454;43.304;24.344;2022-07-18T07:18:25;101069.56;;;24.21;37.58
12781;BME280;6454;43.304;24.344;2022-07-18T07:20:52;101063.75;;;24.26;37.24
12781;BME280;6454;43.304;24.344;2022-07-18T07:23:20;101069.66;;;24.41;36.66
12781;BME280;6454;43.304;24.344;2022-07-18T07:25:47;101069.06;;;24.63;36.83
12781;BME280;6454;43.304;24.344;2022-07-18T07:28:14;101061.78;;;24.74;36.27
12781;BME280;6454;43.304;24.344;2022-07-18T07:30:40;101064.06;;;24.84;37.31
12781;BME280;6454;43.304;24.344;2022-07-18T07:33:08;101062.91;;;24.85;36.29
12781;BME280;6454;43.304;24.344;2022-07-18T07:35:35;101059.75;;;24.86;37.59
12781;BME280;6454;43.304;24.344;2022-07-18T07:38:02;101065.47;;;24.93;36.72
12781;BME280;6454;43.304;24.344;2022-07-18T07:40:30;101057.66;;;24.99;36.53
12781;BME280;6454;43.304;24.344;2022-07-18T07:43:07;101062.28;;;25.11;36.02
12781;BME280;6454;43.304;24.344;2022-07-18T07:45:35;101050.72;;;25.24;35.71
12781;BME280;6454;43.304;24.344;2022-07-18T07:48:03;101055.25;;;25.32;36.15
12781;BME280;6454;43.304;24.344;2022-07-18T07:50:30;101051.53;;;25.44;35.78
12781;BME280;6454;43.304;24.344;2022-07-18T07:52:57;101039.72;;;25.47;35.30
12781;BME280;6454;43.304;24.344;2022-07-18T07:55:24;101042.25;;;25.55;35.64
12781;BME280;6454;43.304;24.344;2022-07-18T07:57:53;101040.97;;;25.49;35.71
12781;BME280;6454;43.304;24.344;2022-07-18T08:00:20;101037.69;;;25.28;34.74
12781;BME280;6454;43.304;24.344;2022-07-18T08:02:51;101038.00;;;25.42;35.36
12781;BME280;6454;43.304;24.344;2022-07-18T08:05:18;101048.00;;;25.63;35.90
12781;BME280;6454;43.304;24.344;2022-07-18T08:07:46;101042.19;;;25.71;34.67
12781;BME280;6454;43.304;24.344;2022-07-18T08:10:13;101044.69;;;25.76;35.29
12781;BME280;6454;43.304;24.344;2022-07-18T08:12:40;101045.88;;;25.75;34.65
12781;BME280;6454;43.304;24.344;2022-07-18T08:15:10;101042.13;;;25.87;34.76
12781;BME280;6454;43.304;24.344;2022-07-18T08:17:37;101048.44;;;26.06;34.83
12781;BME280;6454;43.304;24.344;2022-07-18T08:20:05;101050.34;;;26.21;34.80
12781;BME280;6454;43.304;24.344;2022-07-18T08:22:32;101028.47;;;26.20;34.22
12781;BME280;6454;43.304;24.344;2022-07-18T08:25:00;101045.53;;;26.41;33.74
12781;BME280;6454;43.304;24.344;2022-07-18T08:27:28;101044.91;;;26.51;33.40
12781;BME280;6454;43.304;24.344;2022-07-18T08:29:54;101044.09;;;26.51;33.39
12781;BME280;6454;43.304;24.344;2022-07-18T08:32:23;101048.31;;;26.41;33.38
12781;BME280;6454;43.304;24.344;2022-07-18T08:34:50;101047.50;;;26.41;33.66
12781;BME280;6454;43.304;24.344;2022-07-18T08:37:18;101054.19;;;26.36;33.64
12781;BME280;6454;43.304;24.344;2022-07-18T08:39:46;101046.56;;;26.33;33.10
12781;BME280;6454;43.304;24.344;2022-07-18T08:42:13;101035.38;;;26.52;33.01
12781;BME280;6454;43.304;24.344;2022-07-18T08:44:41;101031.41;;;26.76;32.95
12781;BME280;6454;43.304;24.344;2022-07-18T08:47:08;101029.47;;;26.80;32.42
12781;BME280;6454;43.304;24.344;2022-07-18T08:49:37;101025.28;;;26.90;32.72
12781;BME280;6454;43.304;24.344;2022-07-18T08:52:05;101025.38;;;26.97;33.02
12781;BME280;6454;43.304;24.344;2022-07-18T08:54:32;101024.66;;;27.03;32.42
12781;BME280;6454;43.304;24.344;2022-07-18T08:56:59;101025.06;;;27.05;32.77
12781;BME280;6454;43.304;24.344;2022-07-18T08:59:26;101022.88;;;27.18;31.84
12781;BME280;6454;43.304;24.344;2022-07-18T09:01:53;101024.91;;;27.21;32.52
12781;BME280;6454;43.304;24.344;2022-07-18T09:04:38;101020.63;;;27.27;31.87
12781;BME280;6454;43.304;24.344;2022-07-18T09:07:06;101011.97;;;27.35;30.98
12781;BME280;6454;43.304;24.344;2022-07-18T09:09:34;101011.38;;;27.23;31.87
12781;BME280;6454;43.304;24.344;2022-07-18T09:12:03;101016.28;;;27.29;32.91
12781;BME280;6454;43.304;24.344;2022-07-18T09:14:33;101009.88;;;27.29;31.78
12781;BME280;6454;43.304;24.344;2022-07-18T09:17:02;101019.31;;;27.47;31.65
12781;BME280;6454;43.304;24.344;2022-07-18T09:19:30;101019.69;;;27.45;31.71
12781;BME280;6454;43.304;24.344;2022-07-18T09:22:14;101013.41;;;27.52;31.21
12781;BME280;6454;43.304;24.344;2022-07-18T09:24:56;101010.72;;;27.63;31.12
12781;BME280;6454;43.304;24.344;2022-07-18T09:27:25;101018.03;;;27.74;31.43
12781;BME280;6454;43.304;24.344;2022-07-18T09:30:23;101016.47;;;27.77;31.13
12781;BME280;6454;43.304;24.344;2022-07-18T09:32:53;101008.00;;;27.66;30.75
12781;BME280;6454;43.304;24.344;2022-07-18T09:35:23;101017.78;;;27.86;30.81
12781;BME280;6454;43.304;24.344;2022-07-18T09:38:00;101016.69;;;27.98;31.91
12781;BME280;6454;43.304;24.344;2022-07-18T09:40:29;101020.88;;;28.15;31.45
12781;BME280;6454;43.304;24.344;2022-07-18T09:42:58;101022.47;;;28.16;30.85
12781;BME280;6454;43.304;24.344;2022-07-18T09:45:30;101019.41;;;28.28;30.29
12781;BME280;6454;43.304;24.344;2022-07-18T09:47:59;101012.63;;;28.29;30.48
12781;BME280;6454;43.304;24.344;2022-07-18T09:50:32;101018.16;;;28.22;31.75
12781;BME280;6454;43.304;24.344;2022-07-18T09:53:13;101019.34;;;28.21;31.47
12781;BME280;6454;43.304;24.344;2022-07-18T09:55:47;101018.59;;;28.27;30.88
12781;BME280;6454;43.304;24.344;2022-07-18T09:58:18;101017.97;;;28.44;30.02
12781;BME280;6454;43.304;24.344;2022-07-18T10:00:45;101019.59;;;28.49;29.83
12781;BME280;6454;43.304;24.344;2022-07-18T10:03:13;101009.19;;;28.46;29.63
12781;BME280;6454;43.304;24.344;2022-07-18T10:05:41;101005.34;;;28.64;30.13
12781;BME280;6454;43.304;24.344;2022-07-18T10:08:11;101014.13;;;28.63;30.59
12781;BME280;6454;43.304;24.344;2022-07-18T10:10:39;101010.63;;;28.73;30.04
12781;BME280;6454;43.304;24.344;2022-07-18T10:13:07;101003.00;;;28.66;30.16
12781;BME280;6454;43.304;24.344;2022-07-18T10:15:36;101005.03;;;28.73;30.55
12781;BME280;6454;43.304;24.344;2022-07-18T10:18:05;100999.53;;;28.87;30.92
12781;BME280;6454;43.304;24.344;2022-07-18T10:20:35;101004.81;;;29.03;28.19
12781;BME280;6454;43.304;24.344;2022-07-18T10:23:13;100999.25;;;29.06;29.76
12781;BME280;6454;43.304;24.344;2022-07-18T10:25:41;101002.09;;;29.17;29.96
12781;BME280;6454;43.304;24.344;2022-07-18T10:28:10;101007.28;;;29.15;30.00
12781;BME280;6454;43.304;24.344;2022-07-18T10:30:47;100997.59;;;28.95;28.75
12781;BME280;6454;43.304;24.344;2022-07-18T10:33:37;100999.66;;;29.08;29.26
12781;BME280;6454;43.304;24.344;2022-07-18T10:36:06;100991.69;;;29.10;29.27
12781;BME280;6454;43.304;24.344;2022-07-18T10:38:35;100984.22;;;29.28;29.90
12781;BME280;6454;43.304;24.344;2022-07-18T10:43:43;100961.13;;;29.39;29.07
12781;BME280;6454;43.304;24.344;2022-07-18T10:46:11;100979.16;;;29.62;29.09
12781;BME280;6454;43.304;24.344;2022-07-18T10:48:55;100981.09;;;29.44;28.79
12781;BME280;6454;43.304;24.344;2022-07-18T10:51:33;100977.88;;;29.42;28.78
12781;BME280;6454;43.304;24.344;2022-07-18T10:54:07;100989.13;;;29.60;28.67
12781;BME280;6454;43.304;24.344;2022-07-18T10:57:10;100976.94;;;29.17;28.44
12781;BME280;6454;43.304;24.344;2022-07-18T10:59:58;100977.88;;;29.31;28.16
12781;BME280;6454;43.304;24.344;2022-07-18T11:02:34;100969.09;;;29.37;28.17
12781;BME280;6454;43.304;24.344;2022-07-18T11:05:02;100965.50;;;29.40;27.93
12781;BME280;6454;43.304;24.344;2022-07-18T11:07:29;100971.94;;;29.58;29.37
12781;BME280;6454;43.304;24.344;2022-07-18T11:09:57;100970.00;;;29.76;27.72
12781;BME280;6454;43.304;24.344;2022-07-18T11:12:29;100962.41;;;29.73;27.56
12781;BME280;6454;43.304;24.344;2022-07-18T11:15:04;100954.81;;;29.66;27.09
12781;BME280;6454;43.304;24.344;2022-07-18T11:17:54;100951.59;;;29.75;28.17
12781;BME280;6454;43.304;24.344;2022-07-18T11:20:25;100939.59;;;29.67;28.15
12781;BME280;6454;43.304;24.344;2022-07-18T11:22:52;100945.59;;;29.62;28.21
12781;BME280;6454;43.304;24.344;2022-07-18T11:25:24;100953.59;;;29.74;28.85
12781;BME280;6454;43.304;24.344;2022-07-18T11:27:51;100937.25;;;29.80;27.58
12781;BME280;6454;43.304;24.344;2022-07-18T11:30:19;100943.66;;;29.87;28.15
12781;BME280;6454;43.304;24.344;2022-07-18T11:32:46;100939.66;;;29.85;28.00
12781;BME280;6454;43.304;24.344;2022-07-18T11:35:14;100935.59;;;29.65;27.89
12781;BME280;6454;43.304;24.344;2022-07-18T11:37:46;100930.84;;;29.69;27.88
12781;BME280;6454;43.304;24.344;2022-07-18T11:40:14;100928.47;;;29.85;28.53
12781;BME280;6454;43.304;24.344;2022-07-18T11:42:43;100935.69;;;29.93;27.57
12781;BME280;6454;43.304;24.344;2022-07-18T11:45:11;100925.28;;;30.08;27.47
12781;BME280;6454;43.304;24.344;2022-07-18T11:47:39;100918.50;;;30.16;27.64
12781;BME280;6454;43.304;24.344;2022-07-18T11:50:07;100918.50;;;30.16;27.43
12781;BME280;6454;43.304;24.344;2022-07-18T11:52:34;100914.88;;;30.22;26.80
12781;BME280;6454;43.304;24.344;2022-07-18T11:55:01;100905.69;;;30.32;27.00
12781;BME280;6454;43.304;24.344;2022-07-18T11:57:30;100910.13;;;30.02;27.52
12781;BME280;6454;43.304;24.344;2022-07-18T12:00:00;100912.50;;;30.03;28.18
12781;BME280;6454;43.304;24.344;2022-07-18T12:05:32;100915.28;;;30.07;28.39
12781;BME280;6454;43.304;24.344;2022-07-18T12:07:59;100907.69;;;30.00;27.39
12781;BME280;6454;43.304;24.344;2022-07-18T12:10:26;100901.31;;;30.14;27.10
12781;BME280;6454;43.304;24.344;2022-07-18T12:12:53;100901.28;;;30.17;27.10
12781;BME280;6454;43.304;24.344;2022-07-18T12:15:22;100902.13;;;30.04;26.54
12781;BME280;6454;43.304;24.344;2022-07-18T12:17:49;100890.13;;;30.21;26.28
12781;BME280;6454;43.304;24.344;2022-07-18T12:20:19;100892.09;;;30.31;26.19
12781;BME280;6454;43.304;24.344;2022-07-18T12:23:06;100896.50;;;30.42;26.74
12781;BME280;6454;43.304;24.344;2022-07-18T12:25:57;100888.91;;;30.43;26.72
12781;BME280;6454;43.304;24.344;2022-07-18T12:28:26;100882.91;;;30.37;26.18
12781;BME280;6454;43.304;24.344;2022-07-18T12:30:55;100884.88;;;30.47;26.04
12781;BME280;6454;43.304;24.344;2022-07-18T12:33:22;100882.44;;;30.56;25.67
12781;BME280;6454;43.304;24.344;2022-07-18T12:35:56;100885.25;;;30.56;26.56
12781;BME280;6454;43.304;24.344;2022-07-18T12:38:24;100878.06;;;30.55;26.24
12781;BME280;6454;43.304;24.344;2022-07-18T12:40:53;100880.84;;;30.63;26.11
12781;BME280;6454;43.304;24.344;2022-07-18T12:43:24;100864.41;;;30.72;25.54
12781;BME280;6454;43.304;24.344;2022-07-18T12:45:52;100873.16;;;30.84;26.22
12781;BME280;6454;43.304;24.344;2022-07-18T12:48:21;100868.75;;;30.97;26.01
12781;BME280;6454;43.304;24.344;2022-07-18T12:50:55;100881.19;;;30.86;25.96
12781;BME280;6454;43.304;24.344;2022-07-18T12:53:24;100869.97;;;30.82;26.20
12781;BME280;6454;43.304;24.344;2022-07-18T12:55:51;100865.97;;;30.80;26.17
12781;BME280;6454;43.304;24.344;2022-07-18T12:58:18;100866.41;;;30.78;25.90
12781;BME280;6454;43.304;24.344;2022-07-18T13:00:46;100862.78;;;30.74;25.66
12781;BME280;6454;43.304;24.344;2022-07-18T13:03:13;100860.00;;;30.74;26.28